首页
METAR-TAF:

METAR-TAF

机场 :

巴塞尔-米卢斯-弗赖堡欧洲机场

巴塞尔-米卢斯-弗赖堡欧洲机场, 法国

纬度: 47-36N, 经度: 007-31E, 海拔: 270米

当前天气观测

该预报发布于29分钟前的07:00 UTC
风速4节,风向西
温度 11°C
湿度 76%
气压 1018 hPa
能见度10公里或以上
1500米以下无云,无积雨云

METAR: LFSB 170700Z 28004KT CAVOK 11/07 Q1018 NOSIG

时间: 08:29 (07:29 UTC)

预报

该预报发布于19分钟前的07:10 UTC
预报有效从17日的 07点(UTC)到 18日的 06点(UTC)
风速3节,风向多变
能见度10公里或以上
1500米以下无云,无积雨云
成为
从 17日的 09点(UTC)到 17日的 11点(UTC)
风速12节,风向西转西南
少量云层高于2500英尺
多云层高于4500英尺
短暂存在
从 17日的 11点(UTC)到 17日的 18点(UTC)
风速15节,风向西转西南,有时为25节阵风
小雨
几率 40% :
短暂存在
从 17日的 11点(UTC)到 17日的 17点(UTC)
能見度: 4000
几率 40% :
短暂存在
从 17日的 15点(UTC)到 17日的 18点(UTC)
风速20节,风向西,有时为35节阵风
短暂存在
从 17日的 18点(UTC)到 18日的 04点(UTC)
风速15节,风向西转西南,有时为25节阵风
几率 40% :
短暂存在
从 17日的 18点(UTC)到 17日的 24点(UTC)
少量云层高于3000英尺, 塔状积云.
阵雨

TAF: LFSB 170710Z 1707/1806 VRB03KT CAVOK BECMG 1709/1711 24012KT FEW025 BKN045 TEMPO 1711/1718 25015G25KT -RA PROB40 TEMPO 1711/1717 4000 RA PROB40 TEMPO 1715/1718 26020G35KT TEMPO 1718/1804 25015G25KT PROB40 TEMPO 1718/1724 SHRA FEW030TCU

超过4000个机场的气象观测和天气预报(METAR&TAF报告)。

可查询的气象台以黄色和红色小点在地图上表示。

将鼠标移到小点上方,可查看气象台名称。

然后点击查看天气观测和预报。

如需切换地图:点击带黑十字的绿色按钮放大地图;点击带横线的绿色按钮缩小地图;或者点击绿色箭头查看邻近地区的地图。


METAR-TAF: